This is the latest recevied weather packets stored in our database for station/object K5NWZ. If no packets are shown the sender has not sent any weather packets the latest 10 day(s).
| Time | Temp. | Humidity | Pressure | Rain* | Wind** | Luminosity | Snow |
|---|---|---|---|---|---|---|---|
| 1787688273 | 26.67° C | 42% | 1034.4 hPa | 0 mm | - | 140 W/m² | - |
| 1787687968 | 27.22° C | 42% | 1034.1 hPa | 0 mm | - | 215 W/m² | - |
| 1787687664 | 27.22° C | 41% | 1034.1 hPa | 0 mm | - | 471 W/m² | - |
| 1787687359 | 26.67° C | 42% | 1034 hPa | 0 mm | - | 437 W/m² | - |
| 1787687054 | 27.22° C | 41% | 1033.9 hPa | 0 mm | - | 205 W/m² | - |
| 1787686750 | 26.67° C | 39% | 1033.9 hPa | 0 mm | - | 182 W/m² | - |
| 1787686446 | 26.67° C | 40% | 1034 hPa | 0 mm | - | 167 W/m² | - |
| 1787686142 | 27.22° C | 40% | 1033.9 hPa | 0 mm | - | 140 W/m² | - |
| 1787685837 | 27.22° C | 40% | 1033.9 hPa | 0 mm | - | 134 W/m² | - |
| 1787685531 | 27.22° C | 41% | 1034 hPa | 0 mm | - | 134 W/m² | - |
| 1787685226 | 27.22° C | 40% | 1033.9 hPa | 0 mm | - | 197 W/m² | - |
| 1787684921 | 27.22° C | 40% | 1033.9 hPa | 0 mm | - | 414 W/m² | - |
| 1787684617 | 27.78° C | 40% | 1034 hPa | 0 mm | - | 262 W/m² | - |
| 1787684316 | 28.33° C | 39% | 1034 hPa | 0 mm | - | 411 W/m² | - |
| 1787684006 | 27.78° C | 40% | 1033.8 hPa | 0 mm | - | 855 W/m² | - |
| 1787683705 | 27.78° C | 39% | 1034.4 hPa | 0 mm | - | 720 W/m² | - |
| 1787683401 | 28.33° C | 38% | 1034.4 hPa | 0 mm | - | 360 W/m² | - |
| 1787683097 | 28.33° C | 39% | 1034.1 hPa | 0 mm | - | 818 W/m² | - |
| 1787682793 | 27.78° C | 38% | 1034.4 hPa | 0 mm | - | 785 W/m² | - |
| 1787682489 | 27.78° C | 40% | 1034.5 hPa | 0 mm | - | 752 W/m² | - |
| 1787682184 | 26.11° C | 42% | 1034.5 hPa | 0 mm | - | 841 W/m² | - |
| 1787681880 | 25.56° C | 45% | 1034.5 hPa | 0 mm | - | 324 W/m² | - |
| 1787681579 | 25.56° C | 43% | 1034.4 hPa | 0 mm | - | 256 W/m² | - |
| 1787681274 | 26.67° C | 40% | 1035 hPa | 0 mm | - | 233 W/m² | - |
| 1787680970 | 26.67° C | 39% | 1034.8 hPa | 0 mm | - | 280 W/m² | - |
* Rain latest hour (hover to see other rain measurements)
** Current wind speed in m/s (hover to see current wind gust speed)